Погода Сан-Хуан-дель-Сурна неделю

Масая, Никарагуа

21 - 27 февраля
  • 21февраля
    Сегодня
    +18°
    +31°
    Ясно и безоблачно
    ВремяПогодаТемператураВлажностьДавлениеВетер, м/сВероятность осадков
    00:00Ясно и безоблачно+24°C54 %725 мм4.9 м/с2 %
    03:00Ясно и безоблачно+22°C58 %724 мм4.1 м/с2 %
    06:00Ясно и безоблачно+21°C65 %724 мм2.7 м/с2 %
    09:00Ясно и безоблачно+25°C59 %726 мм4.8 м/с2 %
    12:00Ясно и безоблачно+29°C49 %725 мм6.7 м/с2 %
    15:00Ясно и безоблачно+31°C42 %723 мм6.7 м/с1 %
    18:00Ясно и безоблачно+27°C46 %723 мм6.1 м/с2 %
    21:00Ясно и безоблачно+25°C51 %725 мм5.6 м/с2 %
  • 22февраля
    Четверг
    +18°
    +30°
    Ясно и безоблачно
    ВремяПогодаТемператураВлажностьДавлениеВетер, м/сВероятность осадков
    00:00Ясно и безоблачно+22°C55 %725 мм4.9 м/с2 %
    03:00Ясно и безоблачно+19°C70 %724 мм4.6 м/с2 %
    06:00Практически безоблачно+18°C78 %724 мм4.3 м/с2 %
    09:00Ясно и безоблачно+23°C63 %725 мм4.8 м/с2 %
    12:00Ясно и безоблачно+28°C37 %724 мм6.1 м/с2 %
    15:00Ясно и безоблачно+29°C34 %721 мм5.7 м/с2 %
    18:00Ясно и безоблачно+26°C47 %722 мм4.9 м/с2 %
    21:00Ясно и безоблачно+24°C56 %723 мм4.8 м/с2 %
  • 23февраля
    Пятница
    +18°
    +31°
    Ясно и безоблачно
    ВремяПогодаТемператураВлажностьДавлениеВетер, м/сВероятность осадков
    00:00Ясно и безоблачно+21°C73 %722 мм4.8 м/с2 %
    03:00Ясно и безоблачно+19°C79 %721 мм3.4 м/с2 %
    06:00Ясно и безоблачно+19°C84 %722 мм3.3 м/с2 %
    09:00Ясно и безоблачно+24°C58 %723 мм4.7 м/с2 %
    12:00Ясно и безоблачно+28°C41 %722 мм4.5 м/с2 %
    15:00Ясно и безоблачно+30°C38 %720 мм3.6 м/с2 %
    18:00Ясно и безоблачно+25°C57 %720 мм1.6 м/с2 %
    21:00Ясно и безоблачно+23°C73 %722 мм2.8 м/с2 %
  • 24февраля
    Суббота
    +19°
    +32°
    Ясно и безоблачно
    ВремяПогодаТемператураВлажностьДавлениеВетер, м/сВероятность осадков
    00:00Ясно и безоблачно+21°C75 %722 мм3.4 м/с2 %
    03:00Небольшая облачность+20°C82 %722 мм2.2 м/с2 %
    06:00Небольшая облачность+19°C87 %723 мм2.1 м/с2 %
    09:00Небольшая облачность+25°C62 %725 мм4.5 м/с2 %
    12:00Практически безоблачно+29°C49 %724 мм5.1 м/с2 %
    15:00Ясно и безоблачно+31°C39 %722 мм6.5 м/с2 %
    18:00Ясно и безоблачно+28°C46 %723 мм6.1 м/с2 %
    21:00Ясно и безоблачно+25°C52 %725 мм5.7 м/с2 %
Мы используем cookies
Соглашаюсь